Time,TemperatureF,DewpointF,PressureIn,WindDirection,WindDirectionDegrees,WindSpeedMPH,WindSpeedGustMPH,Humidity,HourlyPrecipIn,Conditions,Clouds,dailyrainin,SoftwareType,DateUTC
2013-05-29 00:01:00,67.6,66.4,30.19,SW,234,0.0,0.0,96,0.00,,,0.00,VWS V14.00,2013-05-29 04:01:00,
2013-05-29 00:02:00,67.6,66.4,30.19,SW,234,0.0,0.0,96,0.00,,,0.00,VWS V14.00,2013-05-29 04:02:00,
2013-05-29 00:07:00,67.7,66.5,30.19,SW,234,0.0,0.0,96,0.00,,,0.00,VWS V14.00,2013-05-29 04:07:00,
2013-05-29 00:12:00,67.6,66.4,30.19,SW,234,0.0,0.0,96,0.00,,,0.00,VWS V14.00,2013-05-29 04:12:00,
2013-05-29 00:17:00,67.7,66.5,30.19,SW,234,0.0,0.0,96,0.00,,,0.00,VWS V14.00,2013-05-29 04:17:00,
2013-05-29 00:22:00,67.8,66.6,30.19,SW,234,0.0,0.0,96,0.00,,,0.00,VWS V14.00,2013-05-29 04:22:00,
2013-05-29 00:27:00,67.7,66.5,30.20,SW,234,0.0,0.0,96,0.00,,,0.00,VWS V14.00,2013-05-29 04:27:00,
2013-05-29 00:33:00,67.4,65.9,30.19,SW,234,0.0,0.0,95,0.00,,,0.00,VWS V14.00,2013-05-29 04:33:00,
2013-05-29 00:38:00,67.2,66.0,30.19,SW,234,0.0,0.0,96,0.00,,,0.00,VWS V14.00,2013-05-29 04:38:00,
2013-05-29 00:43:00,67.2,65.7,30.19,SW,234,0.0,0.0,95,0.00,,,0.00,VWS V14.00,2013-05-29 04:43:00,
2013-05-29 00:48:00,66.8,65.3,30.19,SW,234,0.0,0.0,95,0.00,,,0.00,VWS V14.00,2013-05-29 04:48:00,
2013-05-29 00:53:00,66.5,65.0,30.19,SW,234,0.0,0.0,95,0.00,,,0.00,VWS V14.00,2013-05-29 04:53:00,
2013-05-29 00:58:00,66.2,64.7,30.19,SW,234,0.0,0.0,95,0.00,,,0.00,VWS V14.00,2013-05-29 04:58:00,
2013-05-29 01:03:00,66.0,64.5,30.19,SW,234,0.0,0.0,95,0.00,,,0.00,VWS V14.00,2013-05-29 05:03:00,
2013-05-29 01:09:00,65.9,64.4,30.19,SW,234,0.0,0.0,95,0.00,,,0.00,VWS V14.00,2013-05-29 05:09:00,
2013-05-29 01:14:00,65.8,64.3,30.19,SW,234,0.0,0.0,95,0.00,,,0.00,VWS V14.00,2013-05-29 05:14:00,
2013-05-29 01:19:00,65.7,64.5,30.19,SW,234,0.0,0.0,96,0.00,,,0.00,VWS V14.00,2013-05-29 05:19:00,
2013-05-29 01:24:00,65.7,64.5,30.18,SW,234,0.0,0.0,96,0.00,,,0.00,VWS V14.00,2013-05-29 05:24:00,
2013-05-29 01:29:00,65.7,64.5,30.18,SW,234,0.0,0.0,96,0.00,,,0.00,VWS V14.00,2013-05-29 05:29:00,
2013-05-29 01:34:00,65.7,64.5,30.18,SW,234,0.0,0.0,96,0.00,,,0.00,VWS V14.00,2013-05-29 05:34:00,
2013-05-29 01:40:00,65.6,64.4,30.18,SW,234,0.0,0.0,96,0.00,,,0.00,VWS V14.00,2013-05-29 05:40:00,
2013-05-29 01:45:00,65.7,64.5,30.18,SW,234,0.0,0.0,96,0.00,,,0.00,VWS V14.00,2013-05-29 05:45:00,
2013-05-29 01:50:00,65.8,64.9,30.18,SW,234,0.0,0.0,97,0.00,,,0.00,VWS V14.00,2013-05-29 05:50:00,
2013-05-29 01:55:00,66.2,65.3,30.18,SW,234,0.0,1.0,97,0.00,,,0.00,VWS V14.00,2013-05-29 05:55:00,
2013-05-29 02:00:00,66.7,66.1,30.17,SW,234,0.0,1.0,98,0.00,,,0.00,VWS V14.00,2013-05-29 06:00:00,
2013-05-29 02:05:00,67.2,66.6,30.17,SW,234,0.0,0.0,98,0.00,,,0.00,VWS V14.00,2013-05-29 06:05:00,
2013-05-29 02:11:00,68.0,67.4,30.17,SW,234,0.0,1.0,98,0.00,,,0.00,VWS V14.00,2013-05-29 06:11:00,
2013-05-29 02:16:00,68.4,67.8,30.17,SW,236,0.0,1.0,98,0.00,,,0.00,VWS V14.00,2013-05-29 06:16:00,
2013-05-29 02:21:00,68.7,68.4,30.17,SW,236,1.0,1.0,99,0.00,,,0.00,VWS V14.00,2013-05-29 06:21:00,
2013-05-29 02:26:00,68.8,68.2,30.17,SW,236,0.0,1.0,98,0.00,,,0.00,VWS V14.00,2013-05-29 06:26:00,
2013-05-29 02:31:00,69.0,68.4,30.17,SW,236,0.0,0.0,98,0.00,,,0.00,VWS V14.00,2013-05-29 06:31:00,
2013-05-29 02:36:00,68.9,68.3,30.17,SW,236,0.0,0.0,98,0.00,,,0.00,VWS V14.00,2013-05-29 06:36:00,
2013-05-29 02:41:00,68.5,67.6,30.17,SW,236,0.0,0.0,97,0.00,,,0.00,VWS V14.00,2013-05-29 06:41:00,
2013-05-29 02:47:00,68.0,67.1,30.17,SW,236,0.0,0.0,97,0.00,,,0.00,VWS V14.00,2013-05-29 06:47:00,
2013-05-29 02:52:00,67.6,66.4,30.17,SW,236,0.0,0.0,96,0.00,,,0.00,VWS V14.00,2013-05-29 06:52:00,
2013-05-29 02:57:00,67.1,65.9,30.17,SW,236,0.0,0.0,96,0.00,,,0.00,VWS V14.00,2013-05-29 06:57:00,
2013-05-29 03:02:00,66.4,64.9,30.17,SW,236,0.0,0.0,95,0.00,,,0.00,VWS V14.00,2013-05-29 07:02:00,
2013-05-29 03:07:00,65.7,64.2,30.16,SW,236,0.0,0.0,95,0.00,,,0.00,VWS V14.00,2013-05-29 07:07:00,
2013-05-29 03:12:00,65.5,64.3,30.16,SW,236,0.0,0.0,96,0.00,,,0.00,VWS V14.00,2013-05-29 07:12:00,
2013-05-29 03:18:00,65.4,64.2,30.16,SW,236,0.0,0.0,96,0.00,,,0.00,VWS V14.00,2013-05-29 07:18:00,
2013-05-29 03:23:00,65.3,64.1,30.16,SW,236,0.0,0.0,96,0.00,,,0.00,VWS V14.00,2013-05-29 07:23:00,
2013-05-29 03:28:00,65.2,64.0,30.16,SW,236,0.0,0.0,96,0.00,,,0.00,VWS V14.00,2013-05-29 07:28:00,
2013-05-29 03:34:00,65.1,63.9,30.15,SW,236,0.0,0.0,96,0.00,,,0.00,VWS V14.00,2013-05-29 07:34:00,
2013-05-29 03:39:00,65.1,63.9,30.15,SW,236,0.0,0.0,96,0.00,,,0.00,VWS V14.00,2013-05-29 07:39:00,
2013-05-29 03:44:00,65.0,63.8,30.16,SW,236,0.0,0.0,96,0.00,,,0.00,VWS V14.00,2013-05-29 07:44:00,
2013-05-29 03:49:00,64.9,63.7,30.16,SW,236,0.0,0.0,96,0.00,,,0.00,VWS V14.00,2013-05-29 07:49:00,
2013-05-29 03:54:00,64.7,63.5,30.16,SW,236,0.0,0.0,96,0.00,,,0.00,VWS V14.00,2013-05-29 07:54:00,
2013-05-29 03:59:00,64.7,63.8,30.16,SW,236,0.0,0.0,97,0.00,,,0.00,VWS V14.00,2013-05-29 07:59:00,
2013-05-29 04:05:00,64.6,63.7,30.16,SW,236,0.0,0.0,97,0.00,,,0.00,VWS V14.00,2013-05-29 08:05:00,
2013-05-29 04:10:00,64.4,63.2,30.16,SW,236,0.0,0.0,96,0.00,,,0.00,VWS V14.00,2013-05-29 08:10:00,
2013-05-29 04:15:00,64.3,63.1,30.16,SW,236,0.0,0.0,96,0.00,,,0.00,VWS V14.00,2013-05-29 08:15:00,
2013-05-29 04:20:00,64.2,63.0,30.16,SW,236,0.0,0.0,96,0.00,,,0.00,VWS V14.00,2013-05-29 08:20:00,
2013-05-29 04:25:00,64.0,62.8,30.16,SW,236,0.0,0.0,96,0.00,,,0.00,VWS V14.00,2013-05-29 08:25:00,
2013-05-29 04:30:00,63.7,62.5,30.16,SW,236,0.0,0.0,96,0.00,,,0.00,VWS V14.00,2013-05-29 08:30:00,
2013-05-29 04:35:00,63.6,62.4,30.16,SW,236,0.0,0.0,96,0.00,,,0.00,VWS V14.00,2013-05-29 08:35:00,
2013-05-29 04:41:00,63.6,62.7,30.16,SW,236,0.0,0.0,97,0.00,,,0.00,VWS V14.00,2013-05-29 08:41:00,
2013-05-29 04:46:00,63.5,62.6,30.16,SW,236,0.0,0.0,97,0.00,,,0.00,VWS V14.00,2013-05-29 08:46:00,
2013-05-29 04:51:00,63.4,62.5,30.16,SW,236,0.0,0.0,97,0.00,,,0.00,VWS V14.00,2013-05-29 08:51:00,
2013-05-29 04:56:00,63.3,62.4,30.16,SW,236,0.0,0.0,97,0.00,,,0.00,VWS V14.00,2013-05-29 08:56:00,
2013-05-29 05:01:00,63.3,62.4,30.16,SW,236,0.0,0.0,97,0.00,,,0.00,VWS V14.00,2013-05-29 09:01:00,
2013-05-29 05:06:00,63.1,62.2,30.16,SW,236,0.0,0.0,97,0.00,,,0.00,VWS V14.00,2013-05-29 09:06:00,
2013-05-29 05:11:00,63.1,62.2,30.16,SW,236,0.0,0.0,97,0.00,,,0.00,VWS V14.00,2013-05-29 09:11:00,
2013-05-29 05:16:00,63.1,62.2,30.17,SW,236,0.0,0.0,97,0.00,,,0.00,VWS V14.00,2013-05-29 09:16:00,
2013-05-29 05:22:00,63.0,62.1,30.17,SW,236,0.0,0.0,97,0.00,,,0.00,VWS V14.00,2013-05-29 09:22:00,
2013-05-29 05:27:00,62.9,62.0,30.17,SW,236,0.0,0.0,97,0.00,,,0.00,VWS V14.00,2013-05-29 09:27:00,
2013-05-29 05:32:00,62.9,62.0,30.17,SW,236,0.0,0.0,97,0.00,,,0.00,VWS V14.00,2013-05-29 09:32:00,
2013-05-29 05:37:00,62.9,62.0,30.18,SW,236,0.0,0.0,97,0.00,,,0.00,VWS V14.00,2013-05-29 09:37:00,
2013-05-29 05:42:00,62.8,61.9,30.18,SW,236,0.0,0.0,97,0.00,,,0.00,VWS V14.00,2013-05-29 09:42:00,
2013-05-29 05:47:00,62.7,61.8,30.18,SW,236,0.0,0.0,97,0.00,,,0.00,VWS V14.00,2013-05-29 09:47:00,
2013-05-29 05:53:00,62.6,61.7,30.18,SW,236,0.0,0.0,97,0.00,,,0.00,VWS V14.00,2013-05-29 09:53:00,
2013-05-29 05:58:00,62.5,61.6,30.18,SW,236,0.0,0.0,97,0.00,,,0.00,VWS V14.00,2013-05-29 09:58:00,
2013-05-29 06:03:00,62.4,61.5,30.18,SW,236,0.0,0.0,97,0.00,,,0.00,VWS V14.00,2013-05-29 10:03:00,
2013-05-29 06:08:00,62.4,61.8,30.19,SW,236,0.0,0.0,98,0.00,,,0.00,VWS V14.00,2013-05-29 10:08:00,
2013-05-29 06:13:00,62.4,61.8,30.19,SW,236,0.0,0.0,98,0.00,,,0.00,VWS V14.00,2013-05-29 10:13:00,
2013-05-29 06:18:00,62.5,61.9,30.19,SW,236,0.0,0.0,98,0.00,,,0.00,VWS V14.00,2013-05-29 10:18:00,
2013-05-29 06:23:00,62.6,62.0,30.19,SW,236,0.0,0.0,98,0.00,,,0.00,VWS V14.00,2013-05-29 10:23:00,
2013-05-29 06:29:00,62.7,62.1,30.19,SW,236,0.0,0.0,98,0.00,,,0.00,VWS V14.00,2013-05-29 10:29:00,
2013-05-29 06:34:00,62.8,62.2,30.19,SW,236,0.0,0.0,98,0.00,,,0.00,VWS V14.00,2013-05-29 10:34:00,
2013-05-29 06:39:00,62.9,62.3,30.20,SW,236,0.0,0.0,98,0.00,,,0.00,VWS V14.00,2013-05-29 10:39:00,
2013-05-29 06:44:00,63.0,62.4,30.20,SW,236,0.0,0.0,98,0.00,,,0.00,VWS V14.00,2013-05-29 10:44:00,
2013-05-29 06:49:00,63.1,62.5,30.20,SW,236,0.0,0.0,98,0.00,,,0.00,VWS V14.00,2013-05-29 10:49:00,
2013-05-29 06:54:00,63.2,62.6,30.20,SW,236,0.0,0.0,98,0.00,,,0.00,VWS V14.00,2013-05-29 10:54:00,
2013-05-29 07:00:00,63.3,62.7,30.20,SW,236,0.0,0.0,98,0.00,,,0.00,VWS V14.00,2013-05-29 11:00:00,
2013-05-29 07:05:00,63.4,62.8,30.21,SW,236,0.0,0.0,98,0.00,,,0.00,VWS V14.00,2013-05-29 11:05:00,
2013-05-29 07:10:00,63.5,62.9,30.21,SW,236,0.0,0.0,98,0.00,,,0.00,VWS V14.00,2013-05-29 11:10:00,
2013-05-29 07:15:00,63.7,63.1,30.21,SW,236,0.0,0.0,98,0.00,,,0.00,VWS V14.00,2013-05-29 11:15:00,
2013-05-29 07:20:00,63.9,63.3,30.21,SW,236,0.0,0.0,98,0.00,,,0.00,VWS V14.00,2013-05-29 11:20:00,
2013-05-29 07:25:00,64.2,63.6,30.21,SW,236,0.0,0.0,98,0.00,,,0.00,VWS V14.00,2013-05-29 11:25:00,
2013-05-29 07:30:00,64.6,64.0,30.21,SW,236,0.0,0.0,98,0.00,,,0.00,VWS V14.00,2013-05-29 11:30:00,
2013-05-29 07:35:00,65.2,64.9,30.21,SW,236,0.0,1.0,99,0.00,,,0.00,VWS V14.00,2013-05-29 11:35:00,
2013-05-29 07:41:00,66.0,65.7,30.22,SW,236,0.0,1.0,99,0.00,,,0.00,VWS V14.00,2013-05-29 11:41:00,
2013-05-29 07:46:00,66.7,66.4,30.22,SW,236,0.0,1.0,99,0.00,,,0.00,VWS V14.00,2013-05-29 11:46:00,
2013-05-29 07:51:00,67.3,67.0,30.22,SW,236,1.0,1.0,99,0.00,,,0.00,VWS V14.00,2013-05-29 11:51:00,
2013-05-29 07:56:00,67.8,67.5,30.22,SW,236,0.0,1.0,99,0.00,,,0.00,VWS V14.00,2013-05-29 11:56:00,
2013-05-29 08:01:00,68.3,68.0,30.22,SW,236,0.0,0.0,99,0.00,,,0.00,VWS V14.00,2013-05-29 12:01:00,
2013-05-29 08:06:00,68.6,68.3,30.22,SW,236,0.0,0.0,99,0.00,,,0.00,VWS V14.00,2013-05-29 12:06:00,
2013-05-29 08:12:00,69.2,68.9,30.22,SW,236,0.0,0.0,99,0.00,,,0.00,VWS V14.00,2013-05-29 12:12:00,
2013-05-29 08:17:00,69.8,69.5,30.22,SW,236,0.0,0.0,99,0.00,,,0.00,VWS V14.00,2013-05-29 12:17:00,
2013-05-29 08:22:00,70.2,69.9,30.22,SW,236,0.0,0.0,99,0.00,,,0.00,VWS V14.00,2013-05-29 12:22:00,
2013-05-29 08:27:00,70.9,70.6,30.23,SW,236,1.0,1.0,99,0.00,,,0.00,VWS V14.00,2013-05-29 12:27:00,
2013-05-29 08:32:00,71.6,71.3,30.23,SW,236,0.0,0.0,99,0.00,,,0.00,VWS V14.00,2013-05-29 12:32:00,
2013-05-29 08:37:00,72.4,72.1,30.22,SW,236,0.0,1.0,99,0.00,,,0.00,VWS V14.00,2013-05-29 12:37:00,
2013-05-29 08:43:00,73.1,72.8,30.22,SW,236,0.0,0.0,99,0.00,,,0.00,VWS V14.00,2013-05-29 12:43:00,
2013-05-29 08:48:00,74.0,73.7,30.23,SW,236,0.0,2.0,99,0.00,,,0.00,VWS V14.00,2013-05-29 12:48:00,
2013-05-29 08:53:00,74.5,73.9,30.22,NNE,30,0.0,2.0,98,0.00,,,0.00,VWS V14.00,2013-05-29 12:53:00,
2013-05-29 08:58:00,74.9,73.4,30.22,NNE,30,0.0,2.0,95,0.00,,,0.00,VWS V14.00,2013-05-29 12:58:00,
2013-05-29 09:03:00,75.3,73.1,30.22,ENE,60,0.0,2.0,93,0.00,,,0.00,VWS V14.00,2013-05-29 13:03:00,
2013-05-29 09:08:00,75.7,72.6,30.23,NW,318,0.0,3.0,90,0.00,,,0.00,VWS V14.00,2013-05-29 13:08:00,
2013-05-29 09:13:00,75.9,71.8,30.23,WSW,238,1.0,2.0,87,0.00,,,0.00,VWS V14.00,2013-05-29 13:13:00,
2013-05-29 09:19:00,76.7,70.4,30.23,ESE,105,1.0,3.0,81,0.00,,,0.00,VWS V14.00,2013-05-29 13:19:00,
2013-05-29 09:24:00,77.8,70.8,30.23,SSE,157,2.0,4.0,79,0.00,,,0.00,VWS V14.00,2013-05-29 13:24:00,
2013-05-29 09:29:00,78.5,70.3,30.23,NW,311,0.0,4.0,76,0.00,,,0.00,VWS V14.00,2013-05-29 13:29:00,
2013-05-29 09:34:00,79.4,70.8,30.23,WNW,291,3.0,6.0,75,0.00,,,0.00,VWS V14.00,2013-05-29 13:34:00,
2013-05-29 09:39:00,80.1,69.9,30.23,ESE,107,2.0,6.0,71,0.00,,,0.00,VWS V14.00,2013-05-29 13:39:00,
2013-05-29 09:44:00,80.4,70.1,30.23,ESE,111,3.0,3.0,71,0.00,,,0.00,VWS V14.00,2013-05-29 13:44:00,
2013-05-29 09:50:00,80.5,69.4,30.22,WSW,253,1.0,5.0,69,0.00,,,0.00,VWS V14.00,2013-05-29 13:50:00,
2013-05-29 09:55:00,80.3,69.2,30.23,WSW,257,0.0,3.0,69,0.00,,,0.00,VWS V14.00,2013-05-29 13:55:00,
2013-05-29 10:00:00,80.6,69.1,30.23,WSW,255,1.0,5.0,68,0.00,,,0.00,VWS V14.00,2013-05-29 14:00:00,
2013-05-29 10:05:00,80.9,70.2,30.22,WNW,295,0.0,5.0,70,0.00,,,0.00,VWS V14.00,2013-05-29 14:05:00,
2013-05-29 10:10:00,81.3,70.6,30.23,NW,316,2.0,5.0,70,0.00,,,0.00,VWS V14.00,2013-05-29 14:10:00,
2013-05-29 10:16:00,81.2,69.6,30.23,WNW,292,3.0,7.0,68,0.00,,,0.00,VWS V14.00,2013-05-29 14:16:00,
2013-05-29 10:21:00,81.0,69.4,30.23,West,261,2.0,7.0,68,0.00,,,0.00,VWS V14.00,2013-05-29 14:21:00,
2013-05-29 10:26:00,81.0,68.6,30.23,SE,130,0.0,5.0,66,0.00,,,0.00,VWS V14.00,2013-05-29 14:26:00,
2013-05-29 10:31:00,80.7,69.2,30.23,ESE,110,5.0,5.0,68,0.00,,,0.00,VWS V14.00,2013-05-29 14:31:00,
2013-05-29 10:36:00,80.4,69.3,30.23,SSE,162,1.0,6.0,69,0.00,,,0.00,VWS V14.00,2013-05-29 14:36:00,
2013-05-29 10:42:00,80.2,69.1,30.24,SSW,195,2.0,3.0,69,0.00,,,0.00,VWS V14.00,2013-05-29 14:42:00,
2013-05-29 10:47:00,79.8,69.6,30.23,SW,234,3.0,4.0,71,0.00,,,0.00,VWS V14.00,2013-05-29 14:47:00,
2013-05-29 10:52:00,80.1,68.6,30.23,West,269,1.0,3.0,68,0.00,,,0.00,VWS V14.00,2013-05-29 14:52:00,
2013-05-29 10:57:00,80.3,70.1,30.23,ESE,119,0.0,8.0,71,0.00,,,0.00,VWS V14.00,2013-05-29 14:57:00,
2013-05-29 11:02:00,80.9,70.2,30.24,SW,221,1.0,3.0,70,0.00,,,0.00,VWS V14.00,2013-05-29 15:02:00,
2013-05-29 11:07:00,80.6,69.9,30.24,WSW,257,1.0,4.0,70,0.00,,,0.00,VWS V14.00,2013-05-29 15:07:00,
2013-05-29 11:12:00,80.3,70.9,30.24,NW,304,0.0,0.0,73,0.00,,,0.00,VWS V14.00,2013-05-29 15:12:00,
2013-05-29 11:18:00,80.4,70.1,30.24,SW,224,0.0,2.0,71,0.00,,,0.00,VWS V14.00,2013-05-29 15:18:00,
2013-05-29 11:23:00,80.6,69.5,30.24,SE,141,0.0,4.0,69,0.00,,,0.00,VWS V14.00,2013-05-29 15:23:00,
2013-05-29 11:28:00,80.7,70.4,30.24,SE,134,1.0,4.0,71,0.00,,,0.00,VWS V14.00,2013-05-29 15:28:00,
2013-05-29 11:33:00,81.4,69.0,30.24,SE,128,1.0,2.0,66,0.00,,,0.00,VWS V14.00,2013-05-29 15:33:00,
2013-05-29 11:38:00,82.0,69.1,30.24,SE,144,2.0,3.0,65,0.00,,,0.00,VWS V14.00,2013-05-29 15:38:00,
2013-05-29 11:44:00,82.5,69.6,30.24,WSW,238,0.0,5.0,65,0.00,,,0.00,VWS V14.00,2013-05-29 15:44:00,
2013-05-29 11:49:00,82.3,70.3,30.24,WSW,239,1.0,7.0,67,0.00,,,0.00,VWS V14.00,2013-05-29 15:49:00,
2013-05-29 11:54:00,82.6,69.2,30.24,WSW,249,1.0,5.0,64,0.00,,,0.00,VWS V14.00,2013-05-29 15:54:00,
2013-05-29 11:59:00,82.4,69.0,30.24,SSW,209,2.0,5.0,64,0.00,,,0.00,VWS V14.00,2013-05-29 15:59:00,
2013-05-29 12:04:00,82.1,69.6,30.24,ESE,121,0.0,2.0,66,0.00,,,0.00,VWS V14.00,2013-05-29 16:04:00,
2013-05-29 12:09:00,82.7,69.3,30.24,WSW,251,0.0,5.0,64,0.00,,,0.00,VWS V14.00,2013-05-29 16:09:00,
2013-05-29 12:15:00,82.8,69.4,30.24,SE,144,0.0,5.0,64,0.00,,,0.00,VWS V14.00,2013-05-29 16:15:00,
2013-05-29 12:20:00,82.9,69.5,30.24,West,279,2.0,5.0,64,0.00,,,0.00,VWS V14.00,2013-05-29 16:20:00,
2013-05-29 12:25:00,82.2,68.8,30.24,SSW,198,1.0,4.0,64,0.00,,,0.00,VWS V14.00,2013-05-29 16:25:00,
2013-05-29 12:30:00,81.9,68.5,30.24,NW,315,2.0,5.0,64,0.00,,,0.00,VWS V14.00,2013-05-29 16:30:00,
2013-05-29 12:35:00,81.9,69.4,30.24,WSW,252,0.0,5.0,66,0.00,,,0.00,VWS V14.00,2013-05-29 16:35:00,
2013-05-29 12:40:00,82.7,68.4,30.23,WSW,245,1.0,6.0,62,0.00,,,0.00,VWS V14.00,2013-05-29 16:40:00,
2013-05-29 12:45:00,82.6,68.7,30.23,West,265,1.0,6.0,63,0.00,,,0.00,VWS V14.00,2013-05-29 16:45:00,
2013-05-29 12:51:00,82.5,69.1,30.23,WNW,285,0.0,6.0,64,0.00,,,0.00,VWS V14.00,2013-05-29 16:51:00,
2013-05-29 12:56:00,83.0,69.6,30.23,West,265,0.0,5.0,64,0.00,,,0.00,VWS V14.00,2013-05-29 16:56:00,
2013-05-29 13:01:00,83.5,68.7,30.23,ENE,59,1.0,5.0,61,0.00,,,0.00,VWS V14.00,2013-05-29 17:01:00,
2013-05-29 13:06:00,83.2,68.8,30.23,WNW,286,2.0,6.0,62,0.00,,,0.00,VWS V14.00,2013-05-29 17:06:00,
2013-05-29 13:11:00,83.1,69.7,30.23,WSW,245,1.0,1.0,64,0.00,,,0.00,VWS V14.00,2013-05-29 17:11:00,
2013-05-29 13:16:00,82.9,68.6,30.23,NNW,342,6.0,7.0,62,0.00,,,0.00,VWS V14.00,2013-05-29 17:16:00,
2013-05-29 13:22:00,83.0,68.2,30.22,SW,236,2.0,3.0,61,0.00,,,0.00,VWS V14.00,2013-05-29 17:22:00,
2013-05-29 13:27:00,83.2,69.3,30.22,WSW,241,3.0,5.0,63,0.00,,,0.00,VWS V14.00,2013-05-29 17:27:00,
2013-05-29 13:32:00,82.9,69.0,30.22,West,269,2.0,4.0,63,0.00,,,0.00,VWS V14.00,2013-05-29 17:32:00,
2013-05-29 13:37:00,82.6,69.7,30.22,WNW,293,2.0,4.0,65,0.00,,,0.00,VWS V14.00,2013-05-29 17:37:00,
2013-05-29 13:42:00,82.8,68.9,30.22,SE,136,0.0,1.0,63,0.00,,,0.00,VWS V14.00,2013-05-29 17:42:00,
2013-05-29 13:47:00,82.9,69.5,30.22,NW,310,4.0,6.0,64,0.00,,,0.00,VWS V14.00,2013-05-29 17:47:00,
2013-05-29 13:53:00,82.6,68.7,30.21,WNW,292,2.0,3.0,63,0.00,,,0.00,VWS V14.00,2013-05-29 17:53:00,
2013-05-29 13:58:00,82.7,68.8,30.21,WNW,299,3.0,4.0,63,0.00,,,0.00,VWS V14.00,2013-05-29 17:58:00,
2013-05-29 14:03:00,82.3,68.0,30.21,NNW,327,2.0,7.0,62,0.00,,,0.00,VWS V14.00,2013-05-29 18:03:00,
2013-05-29 14:08:00,82.0,68.2,30.21,ESE,113,2.0,7.0,63,0.00,,,0.00,VWS V14.00,2013-05-29 18:08:00,
2013-05-29 14:13:00,82.3,68.5,30.21,SE,130,3.0,5.0,63,0.00,,,0.00,VWS V14.00,2013-05-29 18:13:00,
2013-05-29 14:18:00,81.9,68.1,30.21,ESE,113,1.0,5.0,63,0.00,,,0.00,VWS V14.00,2013-05-29 18:18:00,
2013-05-29 14:23:00,82.4,67.6,30.20,West,280,3.0,6.0,61,0.00,,,0.00,VWS V14.00,2013-05-29 18:23:00,
2013-05-29 14:29:00,82.8,68.0,30.20,WSW,250,1.0,6.0,61,0.00,,,0.00,VWS V14.00,2013-05-29 18:29:00,
2013-05-29 14:34:00,82.6,68.3,30.20,West,273,4.0,6.0,62,0.00,,,0.00,VWS V14.00,2013-05-29 18:34:00,
2013-05-29 14:39:00,82.7,68.4,30.20,SSW,193,1.0,6.0,62,0.00,,,0.00,VWS V14.00,2013-05-29 18:39:00,
2013-05-29 14:44:00,83.0,68.2,30.20,SW,223,4.0,4.0,61,0.00,,,0.00,VWS V14.00,2013-05-29 18:44:00,
2013-05-29 14:49:00,83.4,68.6,30.20,West,273,0.0,6.0,61,0.00,,,0.00,VWS V14.00,2013-05-29 18:49:00,
2013-05-29 14:54:00,83.6,67.8,30.20,South,176,1.0,2.0,59,0.00,,,0.00,VWS V14.00,2013-05-29 18:54:00,
2013-05-29 15:00:00,83.1,68.3,30.20,SW,232,0.0,3.0,61,0.00,,,0.00,VWS V14.00,2013-05-29 19:00:00,
2013-05-29 15:05:00,83.3,69.9,30.20,NW,311,2.0,4.0,64,0.00,,,0.00,VWS V14.00,2013-05-29 19:05:00,
2013-05-29 15:10:00,83.9,68.5,30.20,SW,220,3.0,6.0,60,0.00,,,0.00,VWS V14.00,2013-05-29 19:10:00,
2013-05-29 15:15:00,84.0,69.1,30.20,NW,323,2.0,5.0,61,0.00,,,0.00,VWS V14.00,2013-05-29 19:15:00,
2013-05-29 15:20:00,83.5,69.1,30.20,WNW,293,4.0,6.0,62,0.00,,,0.00,VWS V14.00,2013-05-29 19:20:00,
2013-05-29 15:25:00,82.4,69.5,30.20,WNW,294,1.0,10.0,65,0.00,,,0.00,VWS V14.00,2013-05-29 19:25:00,
2013-05-29 15:31:00,82.6,69.2,30.20,SW,224,4.0,10.0,64,0.00,,,0.00,VWS V14.00,2013-05-29 19:31:00,
2013-05-29 15:36:00,82.9,68.6,30.19,NW,309,2.0,6.0,62,0.00,,,0.00,VWS V14.00,2013-05-29 19:36:00,
2013-05-29 15:41:00,83.3,68.9,30.19,WSW,246,2.0,6.0,62,0.00,,,0.00,VWS V14.00,2013-05-29 19:41:00,
2013-05-29 15:46:00,83.4,69.0,30.19,NW,306,3.0,8.0,62,0.00,,,0.00,VWS V14.00,2013-05-29 19:46:00,
2013-05-29 15:51:00,83.3,68.5,30.19,SE,128,3.0,4.0,61,0.00,,,0.00,VWS V14.00,2013-05-29 19:51:00,
2013-05-29 15:56:00,82.7,67.9,30.19,SW,222,3.0,5.0,61,0.00,,,0.00,VWS V14.00,2013-05-29 19:56:00,
2013-05-29 16:02:00,82.5,68.6,30.19,SW,218,0.0,2.0,63,0.00,,,0.00,VWS V14.00,2013-05-29 20:02:00,
2013-05-29 16:07:00,82.9,69.0,30.19,WSW,256,1.0,4.0,63,0.00,,,0.00,VWS V14.00,2013-05-29 20:07:00,
2013-05-29 16:12:00,82.8,69.4,30.19,WNW,290,1.0,4.0,64,0.00,,,0.00,VWS V14.00,2013-05-29 20:12:00,
2013-05-29 16:17:00,82.7,68.4,30.19,SW,235,1.0,4.0,62,0.00,,,0.00,VWS V14.00,2013-05-29 20:17:00,
2013-05-29 16:22:00,82.6,69.2,30.19,West,268,0.0,4.0,64,0.00,,,0.00,VWS V14.00,2013-05-29 20:22:00,
2013-05-29 16:27:00,82.9,69.0,30.19,SW,221,2.0,5.0,63,0.00,,,0.00,VWS V14.00,2013-05-29 20:27:00,
2013-05-29 16:33:00,82.7,68.8,30.19,WSW,246,2.0,4.0,63,0.00,,,0.00,VWS V14.00,2013-05-29 20:33:00,
2013-05-29 16:38:00,81.9,68.1,30.19,SSW,207,2.0,4.0,63,0.00,,,0.00,VWS V14.00,2013-05-29 20:38:00,
2013-05-29 16:43:00,81.6,68.7,30.19,SW,234,1.0,4.0,65,0.00,,,0.00,VWS V14.00,2013-05-29 20:43:00,
2013-05-29 16:48:00,81.6,69.6,30.19,WSW,242,2.0,4.0,67,0.00,,,0.00,VWS V14.00,2013-05-29 20:48:00,
2013-05-29 16:53:00,82.2,68.8,30.19,WSW,244,0.0,4.0,64,0.00,,,0.00,VWS V14.00,2013-05-29 20:53:00,
2013-05-29 16:59:00,83.0,69.6,30.19,WNW,283,3.0,5.0,64,0.00,,,0.00,VWS V14.00,2013-05-29 20:59:00,
2013-05-29 17:04:00,82.7,69.8,30.19,West,266,1.0,3.0,65,0.00,,,0.00,VWS V14.00,2013-05-29 21:04:00,
2013-05-29 17:09:00,82.6,68.7,30.19,West,275,2.0,5.0,63,0.00,,,0.00,VWS V14.00,2013-05-29 21:09:00,
2013-05-29 17:14:00,82.5,68.6,30.18,WNW,302,3.0,4.0,63,0.00,,,0.00,VWS V14.00,2013-05-29 21:14:00,
2013-05-29 17:19:00,82.7,69.3,30.19,WNW,294,0.0,6.0,64,0.00,,,0.00,VWS V14.00,2013-05-29 21:19:00,
2013-05-29 17:24:00,82.9,68.1,30.18,WSW,248,1.0,4.0,61,0.00,,,0.00,VWS V14.00,2013-05-29 21:24:00,
2013-05-29 17:29:00,83.1,69.2,30.18,WNW,300,0.0,4.0,63,0.00,,,0.00,VWS V14.00,2013-05-29 21:29:00,
2013-05-29 17:35:00,82.9,69.0,30.18,WNW,286,1.0,5.0,63,0.00,,,0.00,VWS V14.00,2013-05-29 21:35:00,
2013-05-29 17:40:00,82.5,69.1,30.18,SSW,195,0.0,5.0,64,0.00,,,0.00,VWS V14.00,2013-05-29 21:40:00,
2013-05-29 17:45:00,82.4,68.1,30.18,WSW,248,0.0,6.0,62,0.00,,,0.00,VWS V14.00,2013-05-29 21:45:00,
2013-05-29 17:50:00,82.5,68.2,30.18,SE,136,2.0,6.0,62,0.00,,,0.00,VWS V14.00,2013-05-29 21:50:00,
2013-05-29 17:55:00,82.4,68.1,30.18,SE,131,2.0,5.0,62,0.00,,,0.00,VWS V14.00,2013-05-29 21:55:00,